createdAt,value
2023-04-15T00:00:28.439Z,504.00
2023-04-15T00:01:28.438Z,503.00
2023-04-15T00:02:28.556Z,503.00
2023-04-15T00:03:28.585Z,503.00
2023-04-15T00:04:28.493Z,503.00
2023-04-15T00:05:28.399Z,503.00
2023-04-15T00:06:28.453Z,500.00
2023-04-15T00:07:28.497Z,496.00
2023-04-15T00:08:28.563Z,496.00
2023-04-15T00:09:28.598Z,497.00
2023-04-15T00:10:28.650Z,497.00
2023-04-15T00:11:28.690Z,495.00
2023-04-15T00:12:28.736Z,495.00
2023-04-15T00:13:28.801Z,495.00
2023-04-15T00:14:28.848Z,493.00
2023-04-15T00:15:28.876Z,492.00
2023-04-15T00:16:28.958Z,492.00
2023-04-15T00:17:28.994Z,491.00
2023-04-15T00:18:29.026Z,493.00
2023-04-15T00:19:29.060Z,495.00
2023-04-15T00:20:29.124Z,495.00
2023-04-15T00:21:29.184Z,492.00
2023-04-15T00:22:29.221Z,490.00
2023-04-15T00:23:29.273Z,493.00
2023-04-15T00:24:29.340Z,494.00
2023-04-15T00:25:29.392Z,493.00
2023-04-15T00:26:29.404Z,493.00
2023-04-15T00:27:29.479Z,491.00
2023-04-15T00:28:29.477Z,491.00
2023-04-15T00:29:29.504Z,489.00
2023-04-15T00:30:29.456Z,488.00
2023-04-15T00:31:29.704Z,489.00
2023-04-15T00:32:29.510Z,489.00
2023-04-15T00:33:29.446Z,489.00
2023-04-15T00:34:29.428Z,490.00
2023-04-15T00:35:29.440Z,488.00
2023-04-15T00:36:29.428Z,485.00
2023-04-15T00:37:29.452Z,485.00
2023-04-15T00:38:29.494Z,486.00
2023-04-15T00:39:29.554Z,487.00
2023-04-15T00:40:29.606Z,485.00
2023-04-15T00:41:29.658Z,486.00
2023-04-15T00:42:29.707Z,486.00
2023-04-15T00:43:29.776Z,486.00
2023-04-15T00:44:29.823Z,485.00
2023-04-15T00:45:29.959Z,485.00
2023-04-15T00:46:29.932Z,483.00
2023-04-15T00:47:30.010Z,485.00
2023-04-15T00:48:30.037Z,484.00
2023-04-15T00:49:30.003Z,485.00
2023-04-15T00:50:30.041Z,486.00
2023-04-15T00:51:29.989Z,489.00
2023-04-15T00:52:30.010Z,488.00
2023-04-15T00:53:30.001Z,489.00
2023-04-15T00:54:29.965Z,487.00
2023-04-15T00:55:30.017Z,487.00
2023-04-15T00:56:29.973Z,488.00
2023-04-15T00:57:29.943Z,486.00
2023-04-15T00:58:30.006Z,486.00
2023-04-15T00:59:30.043Z,487.00
2023-04-15T01:00:30.096Z,484.00
2023-04-15T01:01:30.218Z,487.00
2023-04-15T01:02:30.303Z,488.00
2023-04-15T01:03:30.282Z,489.00
2023-04-15T01:04:30.407Z,490.00
2023-04-15T01:05:30.331Z,488.00
2023-04-15T01:06:30.386Z,486.00
2023-04-15T01:07:30.448Z,484.00
2023-04-15T01:08:30.507Z,483.00
2023-04-15T01:09:30.562Z,483.00
2023-04-15T01:10:30.609Z,487.00
2023-04-15T01:11:30.686Z,488.00
2023-04-15T01:12:30.703Z,489.00
2023-04-15T01:13:30.757Z,487.00
2023-04-15T01:14:30.818Z,487.00
2023-04-15T01:15:30.858Z,488.00
2023-04-15T01:16:30.963Z,488.00
2023-04-15T01:17:31.003Z,487.00
2023-04-15T01:18:31.029Z,489.00
2023-04-15T01:19:31.089Z,492.00
2023-04-15T01:20:31.137Z,494.00
2023-04-15T01:21:31.189Z,493.00
2023-04-15T01:22:31.240Z,492.00
2023-04-15T01:23:31.307Z,491.00
2023-04-15T01:24:31.368Z,493.00
2023-04-15T01:25:31.407Z,490.00
2023-04-15T01:26:31.472Z,491.00
2023-04-15T01:27:31.524Z,489.00
2023-04-15T01:28:31.576Z,487.00
2023-04-15T01:29:31.634Z,485.00
2023-04-15T01:30:31.688Z,487.00
2023-04-15T01:31:31.823Z,488.00
2023-04-15T01:32:31.838Z,487.00
2023-04-15T01:33:31.876Z,488.00
2023-04-15T01:34:34.284Z,487.00
2023-04-15T01:35:31.916Z,486.00
2023-04-15T01:36:31.899Z,486.00
2023-04-15T01:37:31.907Z,486.00
2023-04-15T01:38:31.902Z,486.00
2023-04-15T01:39:31.907Z,488.00
2023-04-15T01:40:31.902Z,491.00
2023-04-15T01:41:31.901Z,492.00
2023-04-15T01:42:31.910Z,490.00
2023-04-15T01:43:31.892Z,487.00
2023-04-15T01:44:31.887Z,486.00
2023-04-15T01:45:31.898Z,487.00
2023-04-15T01:46:31.923Z,488.00
2023-04-15T01:47:31.964Z,486.00
2023-04-15T01:48:31.905Z,487.00
2023-04-15T01:49:31.891Z,487.00
2023-04-15T01:50:31.864Z,488.00
2023-04-15T01:51:31.886Z,489.00
2023-04-15T01:52:31.867Z,491.00
2023-04-15T01:53:31.866Z,491.00
2023-04-15T01:54:31.863Z,489.00
2023-04-15T01:55:31.869Z,489.00
2023-04-15T01:56:31.848Z,491.00
2023-04-15T01:57:31.843Z,490.00
2023-04-15T01:58:31.815Z,489.00
2023-04-15T01:59:31.835Z,488.00
2023-04-15T02:00:31.811Z,488.00
2023-04-15T02:01:31.871Z,489.00
2023-04-15T02:02:31.946Z,495.00
2023-04-15T02:03:31.923Z,497.00
2023-04-15T02:04:31.798Z,496.00
2023-04-15T02:05:31.857Z,495.00
2023-04-15T02:06:31.923Z,494.00
2023-04-15T02:07:31.965Z,493.00
2023-04-15T02:08:32.026Z,493.00
2023-04-15T02:09:32.090Z,493.00
2023-04-15T02:10:32.151Z,492.00
2023-04-15T02:11:32.224Z,491.00
2023-04-15T02:12:32.238Z,492.00
2023-04-15T02:13:32.283Z,494.00
2023-04-15T02:14:32.356Z,497.00
2023-04-15T02:15:32.399Z,497.00
2023-04-15T02:16:32.544Z,501.00
2023-04-15T02:17:32.603Z,500.00
2023-04-15T02:18:32.569Z,500.00
2023-04-15T02:19:32.631Z,495.00
2023-04-15T02:20:32.683Z,491.00
2023-04-15T02:21:32.736Z,489.00
2023-04-15T02:22:32.882Z,490.00
2023-04-15T02:23:32.858Z,491.00
2023-04-15T02:24:32.911Z,492.00
2023-04-15T02:25:33.005Z,494.00
2023-04-15T02:26:33.015Z,493.00
2023-04-15T02:27:33.089Z,493.00
2023-04-15T02:28:33.121Z,492.00
2023-04-15T02:29:33.172Z,492.00
2023-04-15T02:30:33.229Z,492.00
2023-04-15T02:31:33.289Z,493.00
2023-04-15T02:32:33.340Z,493.00
2023-04-15T02:33:33.400Z,494.00
2023-04-15T02:34:33.434Z,492.00
2023-04-15T02:35:33.475Z,491.00
2023-04-15T02:36:33.528Z,494.00
2023-04-15T02:37:33.576Z,492.00
2023-04-15T02:38:33.646Z,491.00
2023-04-15T02:39:33.723Z,489.00
2023-04-15T02:40:33.733Z,488.00
2023-04-15T02:41:33.825Z,484.00
2023-04-15T02:42:33.860Z,478.00
2023-04-15T02:43:33.930Z,474.00
2023-04-15T02:44:34.015Z,473.00
2023-04-15T02:45:34.047Z,470.00
2023-04-15T02:46:34.160Z,469.00
2023-04-15T02:47:34.128Z,466.00
2023-04-15T02:48:34.107Z,464.00
2023-04-15T02:49:34.168Z,463.00
2023-04-15T02:50:34.117Z,461.00
2023-04-15T02:51:34.660Z,460.00
2023-04-15T02:52:34.241Z,459.00
2023-04-15T02:53:34.136Z,457.00
2023-04-15T02:54:34.135Z,456.00
2023-04-15T02:55:34.227Z,455.00
2023-04-15T02:56:34.119Z,454.00
2023-04-15T02:57:34.171Z,448.00
2023-04-15T02:58:34.162Z,446.00
2023-04-15T02:59:34.167Z,445.00
2023-04-15T03:00:34.198Z,448.00
2023-04-15T03:01:34.210Z,449.00
2023-04-15T03:02:34.242Z,447.00
2023-04-15T03:03:34.270Z,442.00
2023-04-15T03:04:34.237Z,442.00
2023-04-15T03:05:34.304Z,441.00
2023-04-15T03:06:34.292Z,440.00
2023-04-15T03:07:34.289Z,438.00
2023-04-15T03:08:34.345Z,436.00
2023-04-15T03:09:34.341Z,435.00
2023-04-15T03:10:34.385Z,434.00
2023-04-15T03:11:36.060Z,433.00
2023-04-15T03:12:34.426Z,432.00
2023-04-15T03:13:34.481Z,431.00
2023-04-15T03:14:34.415Z,432.00
2023-04-15T03:15:34.436Z,430.00
2023-04-15T03:16:34.519Z,428.00
2023-04-15T03:17:34.452Z,429.00
2023-04-15T03:18:34.445Z,431.00
2023-04-15T03:19:34.413Z,433.00
2023-04-15T03:20:34.459Z,433.00
2023-04-15T03:21:34.409Z,433.00
2023-04-15T03:22:34.439Z,427.00
2023-04-15T03:23:34.428Z,426.00
2023-04-15T03:24:34.456Z,427.00
2023-04-15T03:25:34.477Z,426.00
2023-04-15T03:26:34.488Z,427.00
2023-04-15T03:27:34.460Z,428.00
2023-04-15T03:28:34.455Z,424.00
2023-04-15T03:29:34.470Z,423.00
2023-04-15T03:30:34.459Z,424.00
2023-04-15T03:31:34.484Z,422.00
2023-04-15T03:32:34.473Z,421.00
2023-04-15T03:33:34.461Z,423.00
2023-04-15T03:34:34.465Z,425.00
2023-04-15T03:35:34.665Z,423.00
2023-04-15T03:36:34.486Z,424.00
2023-04-15T03:37:34.471Z,425.00
2023-04-15T03:38:34.483Z,425.00
2023-04-15T03:39:34.469Z,425.00
2023-04-15T03:40:34.470Z,424.00
2023-04-15T03:41:34.506Z,424.00
2023-04-15T03:42:34.482Z,424.00
2023-04-15T03:43:34.505Z,423.00
2023-04-15T03:44:34.484Z,426.00
2023-04-15T03:45:34.487Z,425.00
2023-04-15T03:46:34.505Z,427.00
2023-04-15T03:47:34.534Z,429.00
2023-04-15T03:48:34.482Z,426.00
2023-04-15T03:49:34.528Z,424.00
2023-04-15T03:50:34.529Z,426.00
2023-04-15T03:51:34.485Z,425.00
2023-04-15T03:52:34.452Z,424.00
2023-04-15T03:53:35.178Z,426.00
2023-04-15T03:54:34.466Z,427.00
2023-04-15T03:55:34.525Z,427.00
2023-04-15T03:56:34.458Z,426.00
2023-04-15T03:57:34.460Z,427.00
2023-04-15T03:58:34.460Z,427.00
2023-04-15T03:59:34.464Z,428.00
2023-04-15T04:00:34.478Z,431.00
2023-04-15T04:01:34.591Z,427.00
2023-04-15T04:02:34.549Z,425.00
2023-04-15T04:03:35.324Z,425.00
2023-04-15T04:04:34.552Z,426.00
2023-04-15T04:05:34.557Z,427.00
2023-04-15T04:06:34.579Z,426.00
2023-04-15T04:07:34.607Z,426.00
2023-04-15T04:08:34.658Z,426.00
2023-04-15T04:09:34.644Z,425.00
2023-04-15T04:10:34.690Z,424.00
2023-04-15T04:11:34.695Z,424.00
2023-04-15T04:12:34.754Z,425.00
2023-04-15T04:13:34.759Z,423.00
2023-04-15T04:14:34.756Z,423.00
2023-04-15T04:15:34.787Z,424.00
2023-04-15T04:16:34.820Z,423.00
2023-04-15T04:17:34.789Z,423.00
2023-04-15T04:18:34.766Z,428.00
2023-04-15T04:19:34.774Z,428.00
2023-04-15T04:20:34.770Z,427.00
2023-04-15T04:21:34.775Z,426.00
2023-04-15T04:22:34.785Z,425.00
2023-04-15T04:23:34.859Z,424.00
2023-04-15T04:24:34.779Z,423.00
2023-04-15T04:25:34.814Z,423.00
2023-04-15T04:26:34.808Z,424.00
2023-04-15T04:27:34.813Z,428.00
2023-04-15T04:28:34.821Z,427.00
2023-04-15T04:29:34.817Z,426.00
2023-04-15T04:30:34.819Z,424.00
2023-04-15T04:31:34.840Z,422.00
2023-04-15T04:32:34.870Z,419.00
2023-04-15T04:33:34.828Z,421.00
2023-04-15T04:34:34.869Z,421.00
2023-04-15T04:35:34.870Z,419.00
2023-04-15T04:36:34.865Z,418.00
2023-04-15T04:37:34.883Z,421.00
2023-04-15T04:38:34.869Z,421.00
2023-04-15T04:39:34.875Z,422.00
2023-04-15T04:40:34.896Z,421.00
2023-04-15T04:41:34.912Z,421.00
2023-04-15T04:42:35.442Z,420.00
2023-04-15T04:43:34.904Z,419.00
2023-04-15T04:44:34.911Z,420.00
2023-04-15T04:45:34.945Z,416.00
2023-04-15T04:46:34.950Z,417.00
2023-04-15T04:47:35.063Z,415.00
2023-04-15T04:48:35.047Z,414.00
2023-04-15T04:49:35.083Z,412.00
2023-04-15T04:50:35.152Z,413.00
2023-04-15T04:51:35.201Z,413.00
2023-04-15T04:52:35.265Z,412.00
2023-04-15T04:53:35.305Z,412.00
2023-04-15T04:54:35.334Z,413.00
2023-04-15T04:55:35.399Z,415.00
2023-04-15T04:56:35.434Z,415.00
2023-04-15T04:57:35.507Z,415.00
2023-04-15T04:58:35.554Z,411.00
2023-04-15T04:59:35.571Z,413.00
2023-04-15T05:00:35.653Z,414.00
2023-04-15T05:01:35.751Z,412.00
2023-04-15T05:02:35.826Z,412.00
2023-04-15T05:03:36.051Z,412.00
2023-04-15T05:04:35.861Z,413.00
2023-04-15T05:05:35.900Z,413.00
2023-04-15T05:06:35.974Z,414.00
2023-04-15T05:07:36.003Z,416.00
2023-04-15T05:08:36.065Z,416.00
2023-04-15T05:09:36.115Z,414.00
2023-04-15T05:10:36.174Z,413.00
2023-04-15T05:11:36.246Z,412.00
2023-04-15T05:12:36.278Z,413.00
2023-04-15T05:13:36.350Z,411.00
2023-04-15T05:14:36.396Z,412.00
2023-04-15T05:15:36.460Z,411.00
2023-04-15T05:16:36.552Z,416.00
2023-04-15T05:17:36.619Z,416.00
2023-04-15T05:18:36.643Z,419.00
2023-04-15T05:19:36.707Z,418.00
2023-04-15T05:20:36.792Z,417.00
2023-04-15T05:21:38.996Z,417.00
2023-04-15T05:22:36.856Z,416.00
2023-04-15T05:23:36.820Z,415.00
2023-04-15T05:24:36.853Z,414.00
2023-04-15T05:25:36.857Z,415.00
2023-04-15T05:26:37.220Z,413.00
2023-04-15T05:27:36.878Z,414.00
2023-04-15T05:28:36.860Z,415.00
2023-04-15T05:29:36.870Z,414.00
2023-04-15T05:30:36.859Z,414.00
2023-04-15T05:31:36.934Z,412.00
2023-04-15T05:32:36.896Z,411.00
2023-04-15T05:33:36.881Z,410.00
2023-04-15T05:34:36.882Z,411.00
2023-04-15T05:35:36.902Z,412.00
2023-04-15T05:36:36.912Z,411.00
2023-04-15T05:37:36.904Z,410.00
2023-04-15T05:38:36.910Z,409.00
2023-04-15T05:39:36.923Z,408.00
2023-04-15T05:40:36.919Z,408.00
2023-04-15T05:41:36.920Z,409.00
2023-04-15T05:42:36.951Z,409.00
2023-04-15T05:43:37.030Z,411.00
2023-04-15T05:44:36.956Z,414.00
2023-04-15T05:45:36.967Z,414.00
2023-04-15T05:46:37.228Z,412.00
2023-04-15T05:47:37.116Z,413.00
2023-04-15T05:48:37.172Z,413.00
2023-04-15T05:49:38.220Z,413.00
2023-04-15T05:50:37.281Z,413.00
2023-04-15T05:51:37.350Z,414.00
2023-04-15T05:52:37.408Z,416.00
2023-04-15T05:53:37.477Z,414.00
2023-04-15T05:54:37.532Z,412.00
2023-04-15T05:55:37.585Z,412.00
2023-04-15T05:56:37.593Z,413.00
2023-04-15T05:57:37.599Z,414.00
2023-04-15T05:58:37.592Z,412.00
2023-04-15T05:59:37.589Z,412.00
2023-04-15T06:00:37.600Z,412.00
2023-04-15T06:01:37.617Z,413.00
2023-04-15T06:02:37.858Z,413.00
2023-04-15T06:03:37.837Z,413.00
2023-04-15T06:04:37.756Z,413.00
2023-04-15T06:05:37.631Z,409.00
2023-04-15T06:06:37.644Z,410.00
2023-04-15T06:07:37.695Z,407.00
2023-04-15T06:08:37.753Z,409.00
2023-04-15T06:09:37.816Z,408.00
2023-04-15T06:10:37.887Z,408.00
2023-04-15T06:11:37.959Z,409.00
2023-04-15T06:12:38.003Z,410.00
2023-04-15T06:13:38.064Z,406.00
2023-04-15T06:14:38.103Z,408.00
2023-04-15T06:15:38.169Z,408.00
2023-04-15T06:16:38.348Z,407.00
2023-04-15T06:17:38.296Z,408.00
2023-04-15T06:18:38.340Z,408.00
2023-04-15T06:19:38.376Z,406.00
2023-04-15T06:20:38.444Z,405.00
2023-04-15T06:21:38.529Z,405.00
2023-04-15T06:22:38.537Z,404.00
2023-04-15T06:23:38.593Z,404.00
2023-04-15T06:24:38.660Z,404.00
2023-04-15T06:25:38.725Z,403.00
2023-04-15T06:26:38.786Z,404.00
2023-04-15T06:27:38.826Z,404.00
2023-04-15T06:28:38.901Z,404.00
2023-04-15T06:29:38.939Z,403.00
2023-04-15T06:30:39.008Z,402.00
2023-04-15T06:31:39.208Z,403.00
2023-04-15T06:32:39.169Z,404.00
2023-04-15T06:33:39.178Z,404.00
2023-04-15T06:34:39.247Z,406.00
2023-04-15T06:35:39.352Z,406.00
2023-04-15T06:36:39.381Z,406.00
2023-04-15T06:37:39.430Z,404.00
2023-04-15T06:38:39.499Z,402.00
2023-04-15T06:39:39.561Z,403.00
2023-04-15T06:40:39.650Z,402.00
2023-04-15T06:41:39.717Z,400.00
2023-04-15T06:42:39.750Z,400.00
2023-04-15T06:43:39.804Z,401.00
2023-04-15T06:44:39.853Z,401.00
2023-04-15T06:45:39.922Z,400.00
2023-04-15T06:46:39.996Z,403.00
2023-04-15T06:47:40.072Z,403.00
2023-04-15T06:48:40.083Z,405.00
2023-04-15T06:49:40.151Z,405.00
2023-04-15T06:50:40.190Z,405.00
2023-04-15T06:51:40.263Z,406.00
2023-04-15T06:52:40.309Z,407.00
2023-04-15T06:53:40.299Z,409.00
2023-04-15T06:54:40.324Z,409.00
2023-04-15T06:55:40.312Z,409.00
2023-04-15T06:56:40.377Z,408.00
2023-04-15T06:57:40.334Z,410.00
2023-04-15T06:58:40.346Z,411.00
2023-04-15T06:59:40.355Z,412.00
2023-04-15T07:00:40.506Z,411.00
2023-04-15T07:01:40.388Z,412.00
2023-04-15T07:02:40.500Z,412.00
2023-04-15T07:03:40.323Z,411.00
2023-04-15T07:04:40.531Z,410.00
2023-04-15T07:05:40.334Z,409.00
2023-04-15T07:06:40.326Z,407.00
2023-04-15T07:07:40.329Z,405.00
2023-04-15T07:08:40.334Z,408.00
2023-04-15T07:09:40.336Z,406.00
2023-04-15T07:10:40.334Z,403.00
2023-04-15T07:11:40.362Z,403.00
2023-04-15T07:12:40.354Z,401.00
2023-04-15T07:13:40.376Z,399.00
2023-04-15T07:14:40.413Z,398.00
2023-04-15T07:15:40.438Z,401.00
2023-04-15T07:16:40.496Z,404.00
2023-04-15T07:17:40.514Z,397.00
2023-04-15T07:18:40.503Z,394.00
2023-04-15T07:19:40.528Z,393.00
2023-04-15T07:20:40.568Z,394.00
2023-04-15T07:21:41.905Z,396.00
2023-04-15T07:22:40.604Z,397.00
2023-04-15T07:23:40.632Z,398.00
2023-04-15T07:24:40.614Z,400.00
2023-04-15T07:25:40.614Z,398.00
2023-04-15T07:26:40.634Z,399.00
2023-04-15T07:27:40.618Z,397.00
2023-04-15T07:28:40.593Z,394.00
2023-04-15T07:29:40.590Z,393.00
2023-04-15T07:30:40.603Z,394.00
2023-04-15T07:31:40.629Z,393.00
2023-04-15T07:32:40.660Z,394.00
2023-04-15T07:33:40.601Z,394.00
2023-04-15T07:34:40.567Z,393.00
2023-04-15T07:35:40.571Z,393.00
2023-04-15T07:36:40.576Z,395.00
2023-04-15T07:37:40.578Z,397.00
2023-04-15T07:38:40.549Z,397.00
2023-04-15T07:39:40.548Z,397.00
2023-04-15T07:40:40.563Z,396.00
2023-04-15T07:41:40.552Z,397.00
2023-04-15T07:42:41.472Z,398.00
2023-04-15T07:43:40.514Z,401.00
2023-04-15T07:44:40.550Z,401.00
2023-04-15T07:45:40.621Z,402.00
2023-04-15T07:46:40.808Z,407.00
2023-04-15T07:47:40.770Z,408.00
2023-04-15T07:48:40.820Z,406.00
2023-04-15T07:49:40.839Z,407.00
2023-04-15T07:50:40.906Z,405.00
2023-04-15T07:51:40.968Z,403.00
2023-04-15T07:52:41.017Z,406.00
2023-04-15T07:53:41.088Z,406.00
2023-04-15T07:54:41.162Z,406.00
2023-04-15T07:55:41.132Z,406.00
2023-04-15T07:56:41.124Z,404.00
2023-04-15T07:57:41.121Z,406.00
2023-04-15T07:58:41.125Z,403.00
2023-04-15T07:59:41.118Z,401.00
2023-04-15T08:00:41.092Z,400.00
2023-04-15T08:01:41.095Z,402.00
2023-04-15T08:02:41.322Z,401.00
2023-04-15T08:03:41.234Z,400.00
2023-04-15T08:04:41.342Z,400.00
2023-04-15T08:05:41.190Z,400.00
2023-04-15T08:06:41.230Z,400.00
2023-04-15T08:07:41.326Z,397.00
2023-04-15T08:08:41.341Z,399.00
2023-04-15T08:09:41.343Z,397.00
2023-04-15T08:10:41.348Z,398.00
2023-04-15T08:11:41.318Z,397.00
2023-04-15T08:12:41.308Z,393.00
2023-04-15T08:13:41.285Z,391.00
2023-04-15T08:14:41.278Z,391.00
2023-04-15T08:15:41.294Z,389.00
2023-04-15T08:16:41.259Z,391.00
2023-04-15T08:17:41.360Z,393.00
2023-04-15T08:18:41.375Z,397.00
2023-04-15T08:19:41.396Z,398.00
2023-04-15T08:20:41.453Z,400.00
2023-04-15T08:21:41.525Z,397.00
2023-04-15T08:22:41.601Z,399.00
2023-04-15T08:23:41.632Z,400.00
2023-04-15T08:24:41.671Z,401.00
2023-04-15T08:25:41.702Z,402.00
2023-04-15T08:26:41.745Z,402.00
2023-04-15T08:27:41.781Z,400.00
2023-04-15T08:28:41.820Z,400.00
2023-04-15T08:29:41.864Z,402.00
2023-04-15T08:30:41.888Z,398.00
2023-04-15T08:31:41.976Z,395.00
2023-04-15T08:32:42.012Z,393.00
2023-04-15T08:33:42.021Z,393.00
2023-04-15T08:34:42.062Z,391.00
2023-04-15T08:35:42.096Z,393.00
2023-04-15T08:36:42.119Z,393.00
2023-04-15T08:37:42.166Z,395.00
2023-04-15T08:38:42.240Z,397.00
2023-04-15T08:39:42.245Z,398.00
2023-04-15T08:40:42.279Z,400.00
2023-04-15T08:41:42.311Z,399.00
2023-04-15T08:42:42.957Z,399.00
2023-04-15T08:43:42.356Z,400.00
2023-04-15T08:44:42.384Z,402.00
2023-04-15T08:45:42.439Z,401.00
2023-04-15T08:46:42.519Z,402.00
2023-04-15T08:47:42.529Z,399.00
2023-04-15T08:48:42.478Z,399.00
2023-04-15T08:49:42.498Z,398.00
2023-04-15T08:50:42.508Z,397.00
2023-04-15T08:51:42.534Z,395.00
2023-04-15T08:52:42.558Z,397.00
2023-04-15T08:53:42.569Z,400.00
2023-04-15T08:54:42.555Z,399.00
2023-04-15T08:55:42.581Z,399.00
2023-04-15T08:56:42.687Z,396.00
2023-04-15T08:57:42.609Z,397.00
2023-04-15T08:58:42.587Z,396.00
2023-04-15T08:59:42.597Z,397.00
2023-04-15T09:00:42.620Z,396.00
2023-04-15T09:01:42.790Z,396.00
2023-04-15T09:02:42.827Z,396.00
2023-04-15T09:03:42.744Z,396.00
2023-04-15T09:04:42.610Z,397.00
2023-04-15T09:05:42.617Z,396.00
2023-04-15T09:06:42.607Z,398.00
2023-04-15T09:07:42.646Z,396.00
2023-04-15T09:08:42.593Z,396.00
2023-04-15T09:09:42.599Z,398.00
2023-04-15T09:10:42.576Z,397.00
2023-04-15T09:11:42.595Z,395.00
2023-04-15T09:12:42.563Z,396.00
2023-04-15T09:13:42.554Z,395.00
2023-04-15T09:14:42.558Z,394.00
2023-04-15T09:15:42.520Z,396.00
2023-04-15T09:16:42.542Z,397.00
2023-04-15T09:17:42.534Z,395.00
2023-04-15T09:18:42.489Z,395.00
2023-04-15T09:19:42.475Z,397.00
2023-04-15T09:20:42.452Z,396.00
2023-04-15T09:21:42.427Z,395.00
2023-04-15T09:22:42.398Z,394.00
2023-04-15T09:23:42.391Z,399.00
2023-04-15T09:24:42.397Z,398.00
2023-04-15T09:25:42.361Z,397.00
2023-04-15T09:26:42.329Z,395.00
2023-04-15T09:27:42.322Z,392.00
2023-04-15T09:28:42.293Z,393.00
2023-04-15T09:29:42.297Z,395.00
2023-04-15T09:30:42.282Z,396.00
2023-04-15T09:31:42.235Z,394.00
2023-04-15T09:32:42.224Z,390.00
2023-04-15T09:33:42.194Z,389.00
2023-04-15T09:34:42.183Z,388.00
2023-04-15T09:35:42.143Z,393.00
2023-04-15T09:36:42.138Z,393.00
2023-04-15T09:37:42.098Z,395.00
2023-04-15T09:38:42.116Z,397.00
2023-04-15T09:39:42.079Z,396.00
2023-04-15T09:40:42.074Z,397.00
2023-04-15T09:41:42.089Z,396.00
2023-04-15T09:42:42.083Z,395.00
2023-04-15T09:43:42.159Z,394.00
2023-04-15T09:44:42.154Z,399.00
2023-04-15T09:45:42.182Z,396.00
2023-04-15T09:46:42.215Z,394.00
2023-04-15T09:47:42.253Z,394.00
2023-04-15T09:48:42.294Z,396.00
2023-04-15T09:49:42.373Z,394.00
2023-04-15T09:50:42.322Z,394.00
2023-04-15T09:51:51.187Z,393.00
2023-04-15T09:52:43.329Z,392.00
2023-04-15T09:53:42.305Z,390.00
2023-04-15T09:54:42.288Z,391.00
2023-04-15T09:55:42.274Z,391.00
2023-04-15T09:56:42.248Z,393.00
2023-04-15T09:57:42.243Z,397.00
2023-04-15T09:58:42.200Z,396.00
2023-04-15T09:59:42.334Z,395.00
2023-04-15T10:00:42.142Z,393.00
2023-04-15T10:01:42.156Z,391.00
2023-04-15T10:02:42.180Z,389.00
2023-04-15T10:03:42.152Z,389.00
2023-04-15T10:04:42.066Z,390.00
2023-04-15T10:05:42.055Z,391.00
2023-04-15T10:06:42.006Z,393.00
2023-04-15T10:07:41.985Z,395.00
2023-04-15T10:08:41.975Z,395.00
2023-04-15T10:09:41.945Z,395.00
2023-04-15T10:10:41.912Z,395.00
2023-04-15T10:11:41.898Z,393.00
2023-04-15T10:12:41.872Z,396.00
2023-04-15T10:13:41.856Z,396.00
2023-04-15T10:14:41.846Z,395.00
2023-04-15T10:15:41.810Z,393.00
2023-04-15T10:16:41.805Z,393.00
2023-04-15T10:17:41.738Z,395.00
2023-04-15T10:18:41.721Z,393.00
2023-04-15T10:19:41.688Z,392.00
2023-04-15T10:20:41.665Z,396.00
2023-04-15T10:21:41.631Z,392.00
2023-04-15T10:22:41.590Z,389.00
2023-04-15T10:23:41.568Z,390.00
2023-04-15T10:24:41.550Z,390.00
2023-04-15T10:25:41.531Z,394.00
2023-04-15T10:26:41.496Z,395.00
2023-04-15T10:27:41.467Z,394.00
2023-04-15T10:28:41.507Z,395.00
2023-04-15T10:29:41.453Z,391.00
2023-04-15T10:30:41.462Z,393.00
2023-04-15T10:31:41.604Z,391.00
2023-04-15T10:32:41.534Z,393.00
2023-04-15T10:33:41.488Z,394.00
2023-04-15T10:34:41.503Z,395.00
2023-04-15T10:35:41.453Z,396.00
2023-04-15T10:36:41.411Z,395.00
2023-04-15T10:37:41.390Z,397.00
2023-04-15T10:38:41.343Z,399.00
2023-04-15T10:39:41.332Z,402.00
2023-04-15T10:40:41.371Z,405.00
2023-04-15T10:41:41.276Z,406.00
2023-04-15T10:42:41.299Z,405.00
2023-04-15T10:43:41.314Z,404.00
2023-04-15T10:44:41.357Z,404.00
2023-04-15T10:45:41.385Z,403.00
2023-04-15T10:46:41.456Z,402.00
2023-04-15T10:47:41.413Z,400.00
2023-04-15T10:48:41.359Z,399.00
2023-04-15T10:49:41.348Z,399.00
2023-04-15T10:50:41.332Z,399.00
2023-04-15T10:51:41.286Z,397.00
2023-04-15T10:52:41.259Z,402.00
2023-04-15T10:53:41.251Z,403.00
2023-04-15T10:54:41.219Z,402.00
2023-04-15T10:55:41.186Z,403.00
2023-04-15T10:56:41.221Z,403.00
2023-04-15T10:57:41.254Z,404.00
2023-04-15T10:58:41.292Z,405.00
2023-04-15T10:59:41.341Z,403.00
2023-04-15T11:00:41.373Z,405.00
2023-04-15T11:01:41.483Z,407.00
2023-04-15T11:02:41.832Z,408.00
2023-04-15T11:03:41.579Z,408.00
2023-04-15T11:04:43.083Z,405.00
2023-04-15T11:05:41.359Z,403.00
2023-04-15T11:06:41.336Z,404.00
2023-04-15T11:07:41.339Z,406.00
2023-04-15T11:08:41.282Z,405.00
2023-04-15T11:09:41.256Z,406.00
2023-04-15T11:10:41.235Z,406.00
2023-04-15T11:11:41.221Z,406.00
2023-04-15T11:12:41.300Z,405.00
2023-04-15T11:13:41.172Z,405.00
2023-04-15T11:14:41.201Z,408.00
2023-04-15T11:15:41.263Z,411.00
2023-04-15T11:16:41.321Z,411.00
2023-04-15T11:17:41.330Z,411.00
2023-04-15T11:18:41.332Z,413.00
2023-04-15T11:19:41.370Z,412.00
2023-04-15T11:20:41.386Z,409.00
2023-04-15T11:21:41.411Z,408.00
2023-04-15T11:22:41.431Z,407.00
2023-04-15T11:23:41.472Z,408.00
2023-04-15T11:24:41.518Z,408.00
2023-04-15T11:25:41.579Z,406.00
2023-04-15T11:26:41.585Z,404.00
2023-04-15T11:27:41.581Z,401.00
2023-04-15T11:28:41.567Z,401.00
2023-04-15T11:29:41.576Z,401.00
2023-04-15T11:30:41.583Z,399.00
2023-04-15T11:31:41.648Z,398.00
2023-04-15T11:32:41.645Z,398.00
2023-04-15T11:33:41.595Z,397.00
2023-04-15T11:34:41.625Z,398.00
2023-04-15T11:35:41.644Z,401.00
2023-04-15T11:36:41.665Z,404.00
2023-04-15T11:37:41.665Z,405.00
2023-04-15T11:38:41.693Z,408.00
2023-04-15T11:39:41.694Z,409.00
2023-04-15T11:40:42.806Z,409.00
2023-04-15T11:41:41.666Z,411.00
2023-04-15T11:42:49.511Z,410.00
2023-04-15T11:43:42.608Z,413.00
2023-04-15T11:44:41.574Z,413.00
2023-04-15T11:45:41.583Z,411.00
2023-04-15T11:46:41.506Z,409.00
2023-04-15T11:47:41.520Z,409.00
2023-04-15T11:48:41.484Z,408.00
2023-04-15T11:49:41.460Z,408.00
2023-04-15T11:50:41.419Z,407.00
2023-04-15T11:51:41.385Z,403.00
2023-04-15T11:52:41.357Z,403.00
2023-04-15T11:53:41.400Z,405.00
2023-04-15T11:54:41.317Z,404.00
2023-04-15T11:55:41.331Z,406.00
2023-04-15T11:56:41.287Z,406.00
2023-04-15T11:57:41.252Z,407.00
2023-04-15T11:58:41.218Z,407.00
2023-04-15T11:59:45.469Z,406.00
2023-04-15T12:00:41.178Z,406.00
2023-04-15T12:01:41.153Z,408.00
2023-04-15T12:02:41.286Z,412.00
2023-04-15T12:03:41.396Z,416.00
2023-04-15T12:04:41.201Z,416.00
2023-04-15T12:05:41.066Z,415.00
2023-04-15T12:06:41.029Z,413.00
2023-04-15T12:07:41.002Z,413.00
2023-04-15T12:08:40.997Z,415.00
2023-04-15T12:09:40.972Z,417.00
2023-04-15T12:10:40.941Z,414.00
2023-04-15T12:11:40.964Z,415.00
2023-04-15T12:12:40.907Z,414.00
2023-04-15T12:13:40.877Z,412.00
2023-04-15T12:14:40.890Z,413.00
2023-04-15T12:15:40.875Z,412.00
2023-04-15T12:16:48.505Z,410.00
2023-04-15T12:17:51.076Z,410.00
2023-04-15T12:18:41.754Z,409.00
2023-04-15T12:19:40.718Z,409.00
2023-04-15T12:20:40.707Z,409.00
2023-04-15T12:21:40.674Z,408.00
2023-04-15T12:22:40.649Z,409.00
2023-04-15T12:23:40.624Z,406.00
2023-04-15T12:24:40.656Z,405.00
2023-04-15T12:25:40.580Z,406.00
2023-04-15T12:26:40.545Z,407.00
2023-04-15T12:27:40.562Z,407.00
2023-04-15T12:28:40.494Z,409.00